createdAt,value
2022-11-15T00:01:03.046Z,100072.81
2022-11-15T00:03:31.744Z,100074.03
2022-11-15T00:06:04.238Z,100072.81
2022-11-15T00:08:33.102Z,100068.06
2022-11-15T00:11:01.758Z,100065.41
2022-11-15T00:13:30.401Z,100068.25
2022-11-15T00:16:01.385Z,100069.31
2022-11-15T00:18:29.321Z,100063.34
2022-11-15T00:20:57.042Z,100062.72
2022-11-15T00:23:24.651Z,100057.16
2022-11-15T00:25:58.293Z,100059.22
2022-11-15T00:28:26.085Z,100055.31
2022-11-15T00:30:53.974Z,100057.56
2022-11-15T00:33:22.893Z,100069.09
2022-11-15T00:35:51.526Z,100057.56
2022-11-15T00:38:19.074Z,100051.81
2022-11-15T00:40:46.600Z,100056.13
2022-11-15T00:43:14.256Z,100055.06
2022-11-15T00:45:41.723Z,100050.97
2022-11-15T00:48:09.428Z,100048.13
2022-11-15T00:50:38.531Z,100047.66
2022-11-15T00:53:06.795Z,100049.31
2022-11-15T00:55:34.496Z,100041.06
2022-11-15T00:58:02.014Z,100041.47
2022-11-15T01:00:29.788Z,100036.53
2022-11-15T01:02:57.585Z,100036.53
2022-11-15T01:05:25.380Z,100030.78
2022-11-15T01:07:55.210Z,100029.91
2022-11-15T01:10:22.951Z,100027.88
2022-11-15T01:12:51.483Z,100033.19
2022-11-15T01:15:19.366Z,100025.81
2022-11-15T01:17:47.135Z,100028.28
2022-11-15T01:20:14.833Z,100023.09
2022-11-15T01:22:42.321Z,100020.66
2022-11-15T01:25:11.198Z,100020.41
2022-11-15T01:27:38.727Z,100020.41
2022-11-15T01:30:07.712Z,100020.81
2022-11-15T01:32:35.418Z,100004.38
2022-11-15T01:35:03.711Z,100010.94
2022-11-15T01:37:31.361Z,100010.50
2022-11-15T01:39:58.862Z,100016.22
2022-11-15T01:42:27.721Z,100019.56
2022-11-15T01:44:55.908Z,100005.53
2022-11-15T01:47:25.915Z,100002.63
2022-11-15T01:49:56.877Z,100009.19
2022-11-15T01:52:27.083Z,100017.41
2022-11-15T01:54:58.910Z,100004.22
2022-11-15T01:57:27.841Z,99981.66
2022-11-15T01:59:56.435Z,99987.97
2022-11-15T02:02:24.146Z,99993.91
2022-11-15T02:04:51.920Z,99983.38
2022-11-15T02:07:23.441Z,99979.88
2022-11-15T02:09:51.853Z,99987.72
2022-11-15T02:12:23.139Z,99992.16
2022-11-15T02:14:54.249Z,99987.41
2022-11-15T02:17:35.728Z,99979.53
2022-11-15T02:20:40.966Z,99983.03
2022-11-15T02:23:27.481Z,99968.25
2022-11-15T02:25:59.632Z,99968.63
2022-11-15T02:28:43.783Z,99970.06
2022-11-15T02:31:16.197Z,99969.00
2022-11-15T02:33:49.201Z,99967.13
2022-11-15T02:36:20.090Z,99974.97
2022-11-15T02:38:52.347Z,99978.22
2022-11-15T02:41:22.950Z,99967.28
2022-11-15T02:43:58.603Z,99967.69
2022-11-15T02:46:46.106Z,99962.91
2022-11-15T02:49:14.449Z,99956.53
2022-11-15T02:51:42.599Z,99951.19
2022-11-15T02:54:14.197Z,99952.97
2022-11-15T02:56:42.255Z,99944.78
2022-11-15T02:59:19.020Z,99947.03
2022-11-15T03:01:58.267Z,99949.25
2022-11-15T03:04:33.659Z,99951.94
2022-11-15T03:07:07.058Z,99954.75
2022-11-15T03:09:36.829Z,99955.34
2022-11-15T03:12:09.193Z,99954.44
2022-11-15T03:14:40.226Z,99957.88
2022-11-15T03:17:15.963Z,99954.75
2022-11-15T03:19:47.797Z,99955.69
2022-11-15T03:22:18.852Z,99956.06
2022-11-15T03:24:48.005Z,99967.13
2022-11-15T03:27:17.762Z,99967.50
2022-11-15T03:29:47.395Z,99968.22
2022-11-15T03:32:19.392Z,99975.22
2022-11-15T03:34:49.962Z,99972.22
2022-11-15T03:37:18.328Z,99964.34
2022-11-15T03:39:46.887Z,99965.09
2022-11-15T03:42:22.097Z,99957.63
2022-11-15T03:44:54.121Z,99963.88
2022-11-15T03:47:26.400Z,99958.84
2022-11-15T03:49:55.359Z,99965.16
2022-11-15T03:52:24.040Z,99955.72
2022-11-15T03:54:52.985Z,99957.25
2022-11-15T03:57:21.221Z,99957.72
2022-11-15T03:59:48.820Z,99958.91
2022-11-15T04:02:16.609Z,99952.03
2022-11-15T04:04:45.509Z,99951.00
2022-11-15T04:07:13.050Z,99956.34
2022-11-15T04:09:54.966Z,99954.59
2022-11-15T04:12:31.813Z,99948.06
2022-11-15T04:15:11.082Z,99948.53
2022-11-15T04:17:40.180Z,99955.63
2022-11-15T04:20:29.283Z,99955.16
2022-11-15T04:23:15.601Z,99952.16
2022-11-15T04:25:43.717Z,99955.28
2022-11-15T04:28:11.878Z,99947.25
2022-11-15T04:30:40.189Z,99954.72
2022-11-15T04:33:07.906Z,99953.44
2022-11-15T04:35:39.504Z,99954.00
2022-11-15T04:38:09.925Z,99952.88
2022-11-15T04:40:38.166Z,99954.25
2022-11-15T04:43:05.917Z,99958.59
2022-11-15T04:45:33.450Z,99953.22
2022-11-15T04:48:00.950Z,99953.09
2022-11-15T04:50:28.905Z,99953.09
2022-11-15T04:52:58.138Z,99949.41
2022-11-15T04:55:25.886Z,99943.56
2022-11-15T04:58:00.449Z,99942.63
2022-11-15T05:00:30.411Z,99948.00
2022-11-15T05:03:15.854Z,99949.19
2022-11-15T05:05:43.802Z,99949.97
2022-11-15T05:08:12.616Z,99948.69
2022-11-15T05:10:40.226Z,99948.69
2022-11-15T05:13:07.723Z,99949.63
2022-11-15T05:15:35.368Z,99950.09
2022-11-15T05:18:03.864Z,99945.09
2022-11-15T05:20:31.481Z,99941.50
2022-11-15T05:22:59.072Z,99947.78
2022-11-15T05:25:29.147Z,99951.03
2022-11-15T05:27:56.858Z,99947.63
2022-11-15T05:30:24.435Z,99942.63
2022-11-15T05:32:52.706Z,99946.47
2022-11-15T05:35:22.326Z,99940.75
2022-11-15T05:37:50.030Z,99931.69
2022-11-15T05:40:18.164Z,99940.06
2022-11-15T05:42:48.763Z,99935.63
2022-11-15T05:45:16.660Z,99933.03
2022-11-15T05:47:44.384Z,99920.91
2022-11-15T05:50:13.640Z,99932.13
2022-11-15T05:52:42.297Z,99921.97
2022-11-15T05:55:10.782Z,99920.91
2022-11-15T05:57:38.672Z,99918.44
2022-11-15T06:00:10.357Z,99917.53
2022-11-15T06:02:38.034Z,99916.03
2022-11-15T06:05:06.671Z,99921.13
2022-11-15T06:07:34.171Z,99922.63
2022-11-15T06:10:01.699Z,99919.69
2022-11-15T06:12:29.265Z,99914.78
2022-11-15T06:14:56.796Z,99918.09
2022-11-15T06:17:25.882Z,99913.66
2022-11-15T06:19:53.422Z,99928.09
2022-11-15T06:22:21.834Z,99928.47
2022-11-15T06:24:49.864Z,99928.81
2022-11-15T06:27:17.542Z,99928.09
2022-11-15T06:29:45.071Z,99924.72
2022-11-15T06:32:12.827Z,99929.97
2022-11-15T06:34:41.616Z,99930.69
2022-11-15T06:37:09.120Z,99939.19
2022-11-15T06:39:36.823Z,99935.00
2022-11-15T06:42:04.496Z,99936.03
2022-11-15T06:44:31.997Z,99936.03
2022-11-15T06:46:59.595Z,99939.19
2022-11-15T06:49:27.390Z,99940.59
2022-11-15T06:51:59.734Z,99948.31
2022-11-15T06:54:27.675Z,99951.00
2022-11-15T06:56:55.919Z,99951.00
2022-11-15T06:59:23.467Z,99946.66
2022-11-15T07:01:51.767Z,99945.47
2022-11-15T07:04:19.277Z,99955.75
2022-11-15T07:06:48.785Z,99957.03
2022-11-15T07:09:17.953Z,99969.78
2022-11-15T07:11:45.513Z,99962.88
2022-11-15T07:14:13.110Z,99967.44
2022-11-15T07:16:40.800Z,99983.41
2022-11-15T07:19:08.460Z,99981.91
2022-11-15T07:21:36.791Z,99983.53
2022-11-15T07:24:04.978Z,99985.03
2022-11-15T07:26:33.937Z,99978.53
2022-11-15T07:29:01.808Z,99986.31
2022-11-15T07:31:29.624Z,99983.41
2022-11-15T07:33:58.956Z,99974.59
2022-11-15T07:36:26.685Z,99973.09
2022-11-15T07:38:54.361Z,99989.19
2022-11-15T07:41:21.898Z,99982.06
2022-11-15T07:43:53.169Z,99994.09
2022-11-15T07:46:20.851Z,99987.91
2022-11-15T07:48:48.519Z,99995.03
2022-11-15T07:51:16.775Z,99990.13
2022-11-15T07:53:44.691Z,99991.31
2022-11-15T07:56:12.649Z,99996.09
2022-11-15T07:58:40.166Z,99990.03
2022-11-15T08:01:10.784Z,99993.50
2022-11-15T08:03:39.025Z,99983.56
2022-11-15T08:06:07.143Z,99989.66
2022-11-15T08:08:34.657Z,99983.81
2022-11-15T08:11:02.915Z,99988.03
2022-11-15T08:13:31.858Z,99986.25
2022-11-15T08:16:00.728Z,99985.53
2022-11-15T08:18:29.877Z,99986.81
2022-11-15T08:21:00.854Z,99983.06
2022-11-15T08:23:28.740Z,99982.75
2022-11-15T08:26:02.798Z,99983.13
2022-11-15T08:28:31.452Z,99987.19
2022-11-15T08:30:59.158Z,99974.50
2022-11-15T08:33:26.751Z,99971.00
2022-11-15T08:35:58.051Z,99969.78
2022-11-15T08:38:27.150Z,99958.72
2022-11-15T08:40:55.426Z,99959.69
2022-11-15T08:43:23.122Z,99966.31
2022-11-15T08:45:50.645Z,99956.75
2022-11-15T08:48:18.292Z,99951.06
2022-11-15T08:50:46.794Z,99956.94
2022-11-15T08:53:15.711Z,99951.88
2022-11-15T08:55:43.239Z,99947.00
2022-11-15T08:58:10.993Z,99954.09
2022-11-15T09:00:39.410Z,99949.78
2022-11-15T09:03:07.368Z,99945.53
2022-11-15T09:05:38.555Z,99944.91
2022-11-15T09:08:25.550Z,99950.16
2022-11-15T09:10:59.314Z,99943.97
2022-11-15T09:13:26.948Z,99937.69
2022-11-15T09:15:54.554Z,99935.53
2022-11-15T09:18:24.696Z,99940.94
2022-11-15T09:20:52.359Z,99945.81
2022-11-15T09:23:20.050Z,99944.09
2022-11-15T09:25:47.537Z,99944.19
2022-11-15T09:28:17.210Z,99943.69
2022-11-15T09:30:44.950Z,99938.94
2022-11-15T09:33:13.956Z,99941.56
2022-11-15T09:35:42.073Z,99940.00
2022-11-15T09:38:10.008Z,99943.19
2022-11-15T09:40:38.830Z,99937.31
2022-11-15T09:43:22.792Z,99931.53
2022-11-15T09:45:58.825Z,99929.34
2022-11-15T09:48:43.876Z,99927.25
2022-11-15T09:51:16.765Z,99926.34
2022-11-15T09:56:39.384Z,99933.06
2022-11-15T09:59:22.715Z,99933.53
2022-11-15T10:01:56.132Z,99937.56
2022-11-15T10:04:24.789Z,99933.41
2022-11-15T10:06:58.683Z,99936.31
2022-11-15T10:09:30.065Z,99932.56
2022-11-15T10:11:58.241Z,99926.13
2022-11-15T10:14:29.665Z,99915.91
2022-11-15T10:17:09.870Z,99919.91
2022-11-15T10:19:41.732Z,99917.78
2022-11-15T10:22:21.070Z,99922.03
2022-11-15T10:24:48.965Z,99912.25
2022-11-15T10:27:18.129Z,99919.50
2022-11-15T10:29:48.360Z,99907.75
2022-11-15T10:32:19.367Z,99922.97
2022-11-15T10:34:48.039Z,99912.38
2022-11-15T10:37:15.637Z,99904.88
2022-11-15T10:39:44.350Z,99904.34
2022-11-15T10:42:29.259Z,99901.78
2022-11-15T10:44:58.111Z,99893.81
2022-11-15T10:47:37.717Z,99888.50
2022-11-15T10:50:09.439Z,99880.16
2022-11-15T10:52:38.252Z,99887.72
2022-11-15T10:55:22.183Z,99890.34
2022-11-15T10:57:53.774Z,99874.59
2022-11-15T11:00:41.099Z,99871.94
2022-11-15T11:03:27.126Z,99873.47
2022-11-15T11:06:06.623Z,99865.72
2022-11-15T11:08:35.045Z,99865.19
2022-11-15T11:11:04.719Z,99860.28
2022-11-15T11:13:33.804Z,99857.84
2022-11-15T11:16:21.029Z,99853.28
2022-11-15T11:18:53.903Z,99847.50
2022-11-15T11:21:33.021Z,99848.09
2022-11-15T11:24:10.428Z,99855.06
2022-11-15T11:26:44.224Z,99838.84
2022-11-15T11:29:26.797Z,99832.38
2022-11-15T11:32:02.232Z,99825.91
2022-11-15T11:34:38.940Z,99831.19
2022-11-15T11:37:13.468Z,99837.16
2022-11-15T11:39:46.608Z,99836.38
2022-11-15T11:42:20.107Z,99824.38
2022-11-15T11:44:54.361Z,99826.06
2022-11-15T11:47:26.060Z,99828.63
2022-11-15T11:49:55.301Z,99816.38
2022-11-15T11:52:27.981Z,99828.69
2022-11-15T11:55:02.329Z,99816.16
2022-11-15T11:57:36.438Z,99813.25
2022-11-15T12:00:12.209Z,99820.75
2022-11-15T12:02:43.696Z,99806.66
2022-11-15T12:05:15.429Z,99813.78
2022-11-15T12:07:44.204Z,99798.66
2022-11-15T12:10:22.047Z,99798.59
2022-11-15T12:12:56.271Z,99795.41
2022-11-15T12:15:27.245Z,99790.97
2022-11-15T12:17:57.147Z,99796.50
2022-11-15T12:20:26.269Z,99772.97
2022-11-15T12:22:57.526Z,99778.63
2022-11-15T12:25:30.791Z,99784.22
2022-11-15T12:28:01.307Z,99789.91
2022-11-15T12:30:39.665Z,99775.53
2022-11-15T12:33:31.994Z,99779.41
2022-11-15T12:36:00.997Z,99777.47
2022-11-15T12:38:55.950Z,99776.00
2022-11-15T12:41:26.212Z,99770.78
2022-11-15T12:43:54.134Z,99782.91
2022-11-15T12:46:25.303Z,99757.84
2022-11-15T12:48:56.866Z,99755.53
2022-11-15T12:52:09.238Z,99753.28
2022-11-15T12:54:57.881Z,99765.69
2022-11-15T12:57:46.623Z,99754.59
2022-11-15T13:00:48.015Z,99743.91
2022-11-15T13:03:30.065Z,99743.81
2022-11-15T13:06:06.581Z,99760.19
2022-11-15T13:08:44.743Z,99755.69
2022-11-15T13:11:53.115Z,99759.66
2022-11-15T13:14:48.757Z,99740.25
2022-11-15T13:17:41.373Z,99737.50
2022-11-15T13:20:24.906Z,99739.06
2022-11-15T13:23:03.491Z,99728.63
2022-11-15T13:25:51.033Z,99732.00
2022-11-15T13:28:25.101Z,99711.28
2022-11-15T13:30:55.000Z,99725.03
2022-11-15T13:33:25.249Z,99725.63
2022-11-15T13:35:55.925Z,99713.31
2022-11-15T13:38:31.142Z,99719.25
2022-11-15T13:41:00.051Z,99703.72
2022-11-15T13:44:35.401Z,99695.94
2022-11-15T13:47:06.436Z,99704.84
2022-11-15T13:49:38.440Z,99697.81
2022-11-15T13:52:08.578Z,99689.66
2022-11-15T13:54:42.689Z,99685.88
2022-11-15T13:57:13.870Z,99673.47
2022-11-15T13:59:47.425Z,99673.00
2022-11-15T14:02:19.963Z,99684.75
2022-11-15T14:04:51.925Z,99690.09
2022-11-15T14:07:22.299Z,99671.13
2022-11-15T14:09:52.794Z,99673.34
2022-11-15T14:12:26.842Z,99667.13
2022-11-15T14:14:56.433Z,99663.03
2022-11-15T14:17:36.834Z,99668.47
2022-11-15T14:20:05.425Z,99654.75
2022-11-15T14:22:33.345Z,99647.16
2022-11-15T14:25:16.972Z,99665.94
2022-11-15T14:27:46.757Z,99674.50
2022-11-15T14:30:26.851Z,99666.69
2022-11-15T14:33:58.758Z,99653.84
2022-11-15T14:36:26.354Z,99667.94
2022-11-15T14:38:55.189Z,99652.81
2022-11-15T14:41:27.653Z,99668.25
2022-11-15T14:43:57.574Z,99656.09
2022-11-15T14:46:26.503Z,99648.28
2022-11-15T14:48:55.090Z,99648.94
2022-11-15T14:51:23.411Z,99650.19
2022-11-15T14:53:52.053Z,99653.84
2022-11-15T14:56:20.905Z,99640.50
2022-11-15T14:58:51.498Z,99638.56
2022-11-15T15:01:22.831Z,99631.31
2022-11-15T15:03:52.709Z,99634.25
2022-11-15T15:06:20.577Z,99622.66
2022-11-15T15:08:51.626Z,99628.03
2022-11-15T15:11:23.229Z,99626.75
2022-11-15T15:13:53.453Z,99618.25
2022-11-15T15:16:21.137Z,99618.38
2022-11-15T15:18:50.828Z,99591.94
2022-11-15T15:21:22.736Z,99598.56
2022-11-15T15:23:51.188Z,99590.28
2022-11-15T15:26:19.165Z,99581.41
2022-11-15T15:28:48.672Z,99578.34
2022-11-15T15:31:17.803Z,99572.91
2022-11-15T15:33:45.630Z,99565.75
2022-11-15T15:36:14.926Z,99567.22
2022-11-15T15:38:44.123Z,99586.31
2022-11-15T15:41:12.840Z,99576.13
2022-11-15T15:43:41.265Z,99573.19
2022-11-15T15:46:11.334Z,99566.88
2022-11-15T15:48:40.605Z,99563.84
2022-11-15T15:51:15.454Z,99560.34
2022-11-15T15:53:46.755Z,99568.16
2022-11-15T15:56:14.363Z,99560.72
2022-11-15T15:58:42.008Z,99559.44
2022-11-15T16:01:10.477Z,99553.88
2022-11-15T16:03:38.495Z,99555.97
2022-11-15T16:06:29.211Z,99545.03
2022-11-15T16:09:14.274Z,99539.47
2022-11-15T16:11:43.844Z,99549.97
2022-11-15T16:14:11.435Z,99545.69
2022-11-15T16:16:39.231Z,99547.56
2022-11-15T16:19:07.062Z,99529.06
2022-11-15T16:21:36.306Z,99522.88
2022-11-15T16:24:05.570Z,99511.50
2022-11-15T16:26:38.543Z,99523.00
2022-11-15T16:29:07.780Z,99528.13
2022-11-15T16:31:35.364Z,99530.13
2022-11-15T16:34:03.200Z,99539.16
2022-11-15T16:36:33.281Z,99517.69
2022-11-15T16:39:08.223Z,99517.69
2022-11-15T16:41:35.761Z,99520.94
2022-11-15T16:44:04.380Z,99511.53
2022-11-15T16:46:32.239Z,99509.56
2022-11-15T16:49:01.929Z,99506.91
2022-11-15T16:51:30.060Z,99500.94
2022-11-15T16:53:57.642Z,99505.59
2022-11-15T16:56:29.455Z,99500.09
2022-11-15T16:58:59.601Z,99498.38
2022-11-15T17:01:30.855Z,99494.41
2022-11-15T17:03:58.659Z,99496.03
2022-11-15T17:06:27.405Z,99484.78
2022-11-15T17:08:56.549Z,99488.03
2022-11-15T17:11:24.872Z,99489.31
2022-11-15T17:13:58.566Z,99483.50
2022-11-15T17:16:27.360Z,99491.63
2022-11-15T17:19:01.658Z,99480.19
2022-11-15T17:21:33.639Z,99484.13
2022-11-15T17:24:01.675Z,99488.09
2022-11-15T17:26:32.015Z,99485.78
2022-11-15T17:29:04.394Z,99466.34
2022-11-15T17:31:33.764Z,99468.88
2022-11-15T17:34:02.124Z,99470.75
2022-11-15T17:36:30.358Z,99476.06
2022-11-15T17:38:59.884Z,99469.41
2022-11-15T17:41:29.429Z,99466.81
2022-11-15T17:43:59.110Z,99467.53
2022-11-15T17:46:29.271Z,99467.38
2022-11-15T17:49:02.343Z,99460.94
2022-11-15T17:51:29.958Z,99462.50
2022-11-15T17:53:57.658Z,99458.59
2022-11-15T17:56:27.440Z,99474.63
2022-11-15T17:58:56.707Z,99457.69
2022-11-15T18:01:27.157Z,99460.38
2022-11-15T18:04:02.215Z,99455.56
2022-11-15T18:06:33.757Z,99462.09
2022-11-15T18:09:04.670Z,99454.47
2022-11-15T18:11:34.434Z,99457.69
2022-11-15T18:14:04.569Z,99452.50
2022-11-15T18:16:34.650Z,99460.22
2022-11-15T18:19:10.290Z,99449.31
2022-11-15T18:21:55.947Z,99453.31
2022-11-15T18:24:24.407Z,99448.69
2022-11-15T18:26:52.200Z,99443.53
2022-11-15T18:29:21.466Z,99442.09
2022-11-15T18:31:50.518Z,99444.69
2022-11-15T18:34:21.424Z,99443.31
2022-11-15T18:36:51.344Z,99439.16
2022-11-15T18:39:20.285Z,99439.63
2022-11-15T18:41:48.960Z,99429.56
2022-11-15T18:44:17.167Z,99436.25
2022-11-15T18:46:47.010Z,99429.06
2022-11-15T18:49:16.634Z,99420.38
2022-11-15T18:51:46.669Z,99417.84
2022-11-15T18:54:16.592Z,99421.94
2022-11-15T18:56:45.934Z,99418.31
2022-11-15T18:59:14.078Z,99416.25
2022-11-15T19:01:43.310Z,99409.16
2022-11-15T19:04:13.407Z,99403.13
2022-11-15T19:06:44.289Z,99403.88
2022-11-15T19:09:16.453Z,99396.72
2022-11-15T19:11:45.800Z,99393.69
2022-11-15T19:14:16.053Z,99400.91
2022-11-15T19:16:50.116Z,99389.53
2022-11-15T19:19:20.682Z,99391.47
2022-11-15T19:21:50.559Z,99391.97
2022-11-15T19:24:19.764Z,99400.03
2022-11-15T19:26:49.058Z,99394.09
2022-11-15T19:29:19.225Z,99387.53
2022-11-15T19:31:48.570Z,99383.78
2022-11-15T19:34:18.394Z,99382.75
2022-11-15T19:36:46.628Z,99375.31
2022-11-15T19:39:17.816Z,99381.75
2022-11-15T19:41:50.271Z,99377.44
2022-11-15T19:44:18.938Z,99373.69
2022-11-15T19:46:47.846Z,99376.63
2022-11-15T19:49:18.754Z,99372.63
2022-11-15T19:51:48.603Z,99367.81
2022-11-15T19:54:19.001Z,99373.50
2022-11-15T19:56:53.231Z,99375.94
2022-11-15T19:59:21.641Z,99370.06
2022-11-15T20:01:49.348Z,99368.13
2022-11-15T20:04:17.064Z,99367.81
2022-11-15T20:06:44.967Z,99372.19
2022-11-15T20:09:14.510Z,99366.50
2022-11-15T20:11:42.439Z,99363.16
2022-11-15T20:14:13.435Z,99355.59
2022-11-15T20:16:41.082Z,99357.84
2022-11-15T20:19:09.730Z,99355.13
2022-11-15T20:21:38.241Z,99352.97
2022-11-15T20:24:08.375Z,99347.63
2022-11-15T20:26:36.779Z,99340.94
2022-11-15T20:29:05.400Z,99337.94
2022-11-15T20:31:34.952Z,99347.53
2022-11-15T20:34:04.391Z,99333.16
2022-11-15T20:36:33.011Z,99330.97
2022-11-15T20:39:02.056Z,99323.72
2022-11-15T20:41:30.920Z,99334.25
2022-11-15T20:43:59.657Z,99331.25
2022-11-15T20:46:28.166Z,99338.50
2022-11-15T20:48:57.344Z,99329.56
2022-11-15T20:51:25.550Z,99329.88
2022-11-15T20:53:53.279Z,99321.75
2022-11-15T20:56:22.653Z,99315.16
2022-11-15T20:58:53.328Z,99318.66
2022-11-15T21:01:27.407Z,99321.25
2022-11-15T21:03:58.224Z,99322.28
2022-11-15T21:06:27.041Z,99312.63
2022-11-15T21:09:13.003Z,99316.91
2022-11-15T21:11:58.699Z,99321.81
2022-11-15T21:14:31.920Z,99317.53
2022-11-15T21:16:59.692Z,99317.47
2022-11-15T21:19:35.498Z,99309.00
2022-11-15T21:22:06.471Z,99327.13
2022-11-15T21:24:34.148Z,99315.72
2022-11-15T21:27:02.579Z,99313.28
2022-11-15T21:29:37.387Z,99313.81
2022-11-15T21:32:07.302Z,99301.03
2022-11-15T21:34:37.529Z,99296.81
2022-11-15T21:40:46.058Z,99292.00
2022-11-15T21:43:13.617Z,99292.25
2022-11-15T21:45:41.189Z,99285.75
2022-11-15T21:48:09.241Z,99283.06
2022-11-15T21:50:39.615Z,99283.91
2022-11-15T21:53:07.909Z,99289.22
2022-11-15T21:55:40.954Z,99275.78
2022-11-15T21:58:10.832Z,99283.59
2022-11-15T22:00:56.540Z,99289.97
2022-11-15T22:07:07.681Z,99277.75
2022-11-15T22:09:35.407Z,99276.53
2022-11-15T22:12:05.276Z,99278.91
2022-11-15T22:14:34.191Z,99275.38
2022-11-15T22:17:03.574Z,99275.38
2022-11-15T22:19:32.975Z,99274.75
2022-11-15T22:22:00.968Z,99273.63
2022-11-15T22:24:30.798Z,99262.41
2022-11-15T22:26:58.536Z,99258.66
2022-11-15T22:29:26.100Z,99254.63
2022-11-15T22:31:53.734Z,99254.84
2022-11-15T22:34:21.903Z,99257.41
2022-11-15T22:37:18.294Z,99255.75
2022-11-15T22:39:42.798Z,99255.22
2022-11-15T22:42:10.468Z,99254.56
2022-11-15T22:44:39.313Z,99250.84
2022-11-15T22:47:06.876Z,99257.00
2022-11-15T22:49:34.487Z,99249.53
2022-11-15T22:52:02.271Z,99251.16
2022-11-15T22:54:32.358Z,99251.44
2022-11-15T22:57:01.796Z,99247.88
2022-11-15T22:59:32.128Z,99244.91
2022-11-15T23:01:59.714Z,99243.00
2022-11-15T23:04:27.367Z,99240.47
2022-11-15T23:06:55.423Z,99237.75
2022-11-15T23:09:23.269Z,99227.50
2022-11-15T23:12:08.651Z,99233.91
2022-11-15T23:14:37.713Z,99231.44
2022-11-15T23:17:06.694Z,99225.94
2022-11-15T23:19:34.756Z,99228.56
2022-11-15T23:22:21.214Z,99230.00
2022-11-15T23:24:49.312Z,99230.41
2022-11-15T23:27:19.928Z,99225.66
2022-11-15T23:30:08.482Z,99228.69
2022-11-15T23:32:53.832Z,99230.06
2022-11-15T23:35:21.689Z,99226.59
2022-11-15T23:37:49.840Z,99223.72
2022-11-15T23:40:18.009Z,99220.22
2022-11-15T23:42:46.529Z,99225.59
2022-11-15T23:45:15.580Z,99220.72
2022-11-15T23:47:45.252Z,99215.38
2022-11-15T23:50:22.245Z,99218.63
2022-11-15T23:52:52.471Z,99217.19
2022-11-15T23:55:20.053Z,99216.44
2022-11-15T23:57:47.663Z,99221.03
